sensor_id;sensor_type;location;lat;lon;timestamp;P1;durP1;ratioP1;P2;durP2;ratioP2
7965;SDS011;4028;43.272;26.932;2023-05-10T00:01:54;8.97;;;6.97;;
7965;SDS011;4028;43.272;26.932;2023-05-10T00:04:20;8.13;;;6.87;;
7965;SDS011;4028;43.272;26.932;2023-05-10T00:06:46;7.40;;;6.70;;
7965;SDS011;4028;43.272;26.932;2023-05-10T00:09:12;9.60;;;6.90;;
7965;SDS011;4028;43.272;26.932;2023-05-10T00:11:37;8.63;;;6.23;;
7965;SDS011;4028;43.272;26.932;2023-05-10T00:14:03;10.87;;;6.80;;
7965;SDS011;4028;43.272;26.932;2023-05-10T00:16:28;9.17;;;7.00;;
7965;SDS011;4028;43.272;26.932;2023-05-10T00:18:54;10.30;;;6.90;;
7965;SDS011;4028;43.272;26.932;2023-05-10T00:21:19;8.43;;;6.50;;
7965;SDS011;4028;43.272;26.932;2023-05-10T00:23:45;9.57;;;7.03;;
7965;SDS011;4028;43.272;26.932;2023-05-10T00:26:11;11.83;;;6.70;;
7965;SDS011;4028;43.272;26.932;2023-05-10T00:28:37;8.60;;;6.53;;
7965;SDS011;4028;43.272;26.932;2023-05-10T00:31:02;9.90;;;6.20;;
7965;SDS011;4028;43.272;26.932;2023-05-10T00:33:28;7.60;;;6.90;;
7965;SDS011;4028;43.272;26.932;2023-05-10T00:35:53;7.03;;;6.03;;
7965;SDS011;4028;43.272;26.932;2023-05-10T00:38:19;6.33;;;5.77;;
7965;SDS011;4028;43.272;26.932;2023-05-10T00:40:44;8.80;;;6.10;;
7965;SDS011;4028;43.272;26.932;2023-05-10T00:43:10;6.33;;;5.63;;
7965;SDS011;4028;43.272;26.932;2023-05-10T00:45:35;6.80;;;6.03;;
7965;SDS011;4028;43.272;26.932;2023-05-10T00:48:02;6.37;;;5.73;;
7965;SDS011;4028;43.272;26.932;2023-05-10T00:50:28;7.63;;;5.80;;
7965;SDS011;4028;43.272;26.932;2023-05-10T00:52:55;6.90;;;6.20;;
7965;SDS011;4028;43.272;26.932;2023-05-10T00:55:22;8.10;;;6.17;;
7965;SDS011;4028;43.272;26.932;2023-05-10T00:57:48;8.43;;;6.67;;
7965;SDS011;4028;43.272;26.932;2023-05-10T01:00:14;9.00;;;6.83;;
7965;SDS011;4028;43.272;26.932;2023-05-10T01:02:43;13.73;;;6.90;;
7965;SDS011;4028;43.272;26.932;2023-05-10T01:05:10;10.60;;;7.37;;
7965;SDS011;4028;43.272;26.932;2023-05-10T01:07:35;7.67;;;6.73;;
7965;SDS011;4028;43.272;26.932;2023-05-10T01:10:01;7.87;;;6.60;;
7965;SDS011;4028;43.272;26.932;2023-05-10T01:12:26;7.60;;;6.77;;
7965;SDS011;4028;43.272;26.932;2023-05-10T01:14:52;9.73;;;7.33;;
7965;SDS011;4028;43.272;26.932;2023-05-10T01:17:18;9.03;;;7.07;;
7965;SDS011;4028;43.272;26.932;2023-05-10T01:19:45;7.57;;;6.83;;
7965;SDS011;4028;43.272;26.932;2023-05-10T01:33:05;8.07;;;7.13;;
7965;SDS011;4028;43.272;26.932;2023-05-10T01:35:42;9.73;;;7.50;;
7965;SDS011;4028;43.272;26.932;2023-05-10T01:43:39;8.07;;;7.27;;
7965;SDS011;4028;43.272;26.932;2023-05-10T01:46:16;8.70;;;7.77;;
7965;SDS011;4028;43.272;26.932;2023-05-10T01:48:49;11.57;;;7.90;;
7965;SDS011;4028;43.272;26.932;2023-05-10T01:51:23;10.40;;;7.40;;
7965;SDS011;4028;43.272;26.932;2023-05-10T01:53:51;14.27;;;7.93;;
7965;SDS011;4028;43.272;26.932;2023-05-10T01:56:24;11.53;;;7.83;;
7965;SDS011;4028;43.272;26.932;2023-05-10T01:58:53;10.17;;;7.93;;
7965;SDS011;4028;43.272;26.932;2023-05-10T02:01:20;9.57;;;8.60;;
7965;SDS011;4028;43.272;26.932;2023-05-10T02:03:46;10.03;;;8.40;;
7965;SDS011;4028;43.272;26.932;2023-05-10T02:06:14;11.33;;;8.90;;
7965;SDS011;4028;43.272;26.932;2023-05-10T02:08:43;11.90;;;9.60;;
7965;SDS011;4028;43.272;26.932;2023-05-10T02:11:12;11.60;;;10.43;;
7965;SDS011;4028;43.272;26.932;2023-05-10T02:13:39;11.60;;;10.47;;
7965;SDS011;4028;43.272;26.932;2023-05-10T02:16:05;11.27;;;9.67;;
7965;SDS011;4028;43.272;26.932;2023-05-10T02:18:31;9.77;;;8.70;;
7965;SDS011;4028;43.272;26.932;2023-05-10T02:20:58;9.93;;;8.93;;
7965;SDS011;4028;43.272;26.932;2023-05-10T02:23:25;11.63;;;9.00;;
7965;SDS011;4028;43.272;26.932;2023-05-10T02:25:51;11.40;;;10.20;;
7965;SDS011;4028;43.272;26.932;2023-05-10T02:28:19;15.23;;;10.37;;
7965;SDS011;4028;43.272;26.932;2023-05-10T02:30:47;12.07;;;9.40;;
7965;SDS011;4028;43.272;26.932;2023-05-10T02:33:13;10.80;;;7.50;;
7965;SDS011;4028;43.272;26.932;2023-05-10T02:35:39;9.97;;;6.93;;
7965;SDS011;4028;43.272;26.932;2023-05-10T02:38:05;10.83;;;7.53;;
7965;SDS011;4028;43.272;26.932;2023-05-10T02:40:32;12.53;;;7.97;;
7965;SDS011;4028;43.272;26.932;2023-05-10T02:42:59;16.70;;;8.37;;
7965;SDS011;4028;43.272;26.932;2023-05-10T02:45:27;13.53;;;9.20;;
7965;SDS011;4028;43.272;26.932;2023-05-10T02:47:56;16.27;;;8.57;;
7965;SDS011;4028;43.272;26.932;2023-05-10T02:50:22;13.80;;;8.40;;
7965;SDS011;4028;43.272;26.932;2023-05-10T02:52:52;12.70;;;7.17;;
7965;SDS011;4028;43.272;26.932;2023-05-10T02:55:25;11.33;;;7.00;;
7965;SDS011;4028;43.272;26.932;2023-05-10T02:57:58;10.90;;;6.77;;
7965;SDS011;4028;43.272;26.932;2023-05-10T03:00:25;16.00;;;6.50;;
7965;SDS011;4028;43.272;26.932;2023-05-10T03:02:51;14.33;;;7.47;;
7965;SDS011;4028;43.272;26.932;2023-05-10T03:05:16;7.93;;;7.10;;
7965;SDS011;4028;43.272;26.932;2023-05-10T03:07:43;11.57;;;7.47;;
7965;SDS011;4028;43.272;26.932;2023-05-10T03:10:09;9.77;;;7.80;;
7965;SDS011;4028;43.272;26.932;2023-05-10T03:15:07;12.63;;;6.40;;
7965;SDS011;4028;43.272;26.932;2023-05-10T03:20:11;7.63;;;6.70;;
7965;SDS011;4028;43.272;26.932;2023-05-10T03:22:44;10.87;;;6.73;;
7965;SDS011;4028;43.272;26.932;2023-05-10T03:25:12;14.03;;;7.33;;
7965;SDS011;4028;43.272;26.932;2023-05-10T03:27:42;13.43;;;7.40;;
7965;SDS011;4028;43.272;26.932;2023-05-10T03:30:12;11.30;;;7.17;;
7965;SDS011;4028;43.272;26.932;2023-05-10T03:32:38;10.63;;;6.77;;
7965;SDS011;4028;43.272;26.932;2023-05-10T03:35:07;7.87;;;6.93;;
7965;SDS011;4028;43.272;26.932;2023-05-10T03:37:33;12.20;;;6.77;;
7965;SDS011;4028;43.272;26.932;2023-05-10T03:39:59;10.90;;;7.03;;
7965;SDS011;4028;43.272;26.932;2023-05-10T03:42:25;10.97;;;6.87;;
7965;SDS011;4028;43.272;26.932;2023-05-10T03:44:50;10.23;;;6.67;;
7965;SDS011;4028;43.272;26.932;2023-05-10T03:47:16;12.47;;;6.77;;
7965;SDS011;4028;43.272;26.932;2023-05-10T03:49:41;10.27;;;6.07;;
7965;SDS011;4028;43.272;26.932;2023-05-10T03:52:06;12.07;;;7.30;;
7965;SDS011;4028;43.272;26.932;2023-05-10T03:54:32;11.63;;;6.63;;
7965;SDS011;4028;43.272;26.932;2023-05-10T03:56:57;11.90;;;6.30;;
7965;SDS011;4028;43.272;26.932;2023-05-10T03:59:23;13.60;;;6.47;;
7965;SDS011;4028;43.272;26.932;2023-05-10T04:01:48;10.47;;;6.40;;
7965;SDS011;4028;43.272;26.932;2023-05-10T04:04:14;12.77;;;6.37;;
7965;SDS011;4028;43.272;26.932;2023-05-10T04:06:39;11.60;;;7.53;;
7965;SDS011;4028;43.272;26.932;2023-05-10T04:09:05;14.40;;;7.90;;
7965;SDS011;4028;43.272;26.932;2023-05-10T04:11:30;10.93;;;7.70;;
7965;SDS011;4028;43.272;26.932;2023-05-10T04:13:56;18.55;;;8.70;;
7965;SDS011;4028;43.272;26.932;2023-05-10T04:16:21;15.10;;;8.00;;
7965;SDS011;4028;43.272;26.932;2023-05-10T04:18:47;14.30;;;8.45;;
7965;SDS011;4028;43.272;26.932;2023-05-10T04:21:13;15.02;;;9.20;;
7965;SDS011;4028;43.272;26.932;2023-05-10T04:23:40;14.18;;;7.18;;
7965;SDS011;4028;43.272;26.932;2023-05-10T04:26:05;10.43;;;6.25;;
7965;SDS011;4028;43.272;26.932;2023-05-10T04:28:31;11.23;;;6.80;;
7965;SDS011;4028;43.272;26.932;2023-05-10T04:31:00;13.30;;;6.72;;
7965;SDS011;4028;43.272;26.932;2023-05-10T04:33:29;8.93;;;6.50;;
7965;SDS011;4028;43.272;26.932;2023-05-10T04:35:54;10.77;;;7.07;;
7965;SDS011;4028;43.272;26.932;2023-05-10T04:38:20;12.45;;;6.28;;
7965;SDS011;4028;43.272;26.932;2023-05-10T04:40:45;11.93;;;6.70;;
7965;SDS011;4028;43.272;26.932;2023-05-10T04:43:11;16.25;;;7.35;;
7965;SDS011;4028;43.272;26.932;2023-05-10T04:45:36;9.57;;;7.35;;
7965;SDS011;4028;43.272;26.932;2023-05-10T04:48:02;8.68;;;6.65;;
7965;SDS011;4028;43.272;26.932;2023-05-10T04:50:27;9.60;;;6.57;;
7965;SDS011;4028;43.272;26.932;2023-05-10T04:52:53;9.23;;;6.93;;
7965;SDS011;4028;43.272;26.932;2023-05-10T04:55:18;8.73;;;7.37;;
7965;SDS011;4028;43.272;26.932;2023-05-10T04:57:44;9.90;;;7.17;;
7965;SDS011;4028;43.272;26.932;2023-05-10T05:00:10;11.47;;;7.30;;
7965;SDS011;4028;43.272;26.932;2023-05-10T05:02:36;9.23;;;7.17;;
7965;SDS011;4028;43.272;26.932;2023-05-10T05:05:01;11.90;;;7.50;;
7965;SDS011;4028;43.272;26.932;2023-05-10T05:07:27;8.90;;;7.50;;
7965;SDS011;4028;43.272;26.932;2023-05-10T05:09:53;12.07;;;7.50;;
7965;SDS011;4028;43.272;26.932;2023-05-10T05:12:18;13.07;;;8.43;;
7965;SDS011;4028;43.272;26.932;2023-05-10T05:14:43;9.33;;;8.00;;
7965;SDS011;4028;43.272;26.932;2023-05-10T05:17:09;15.53;;;13.90;;
7965;SDS011;4028;43.272;26.932;2023-05-10T05:19:34;17.67;;;10.63;;
7965;SDS011;4028;43.272;26.932;2023-05-10T05:22:00;9.67;;;8.67;;
7965;SDS011;4028;43.272;26.932;2023-05-10T05:24:26;9.03;;;7.30;;
7965;SDS011;4028;43.272;26.932;2023-05-10T05:26:52;12.17;;;8.83;;
7965;SDS011;4028;43.272;26.932;2023-05-10T05:29:17;10.27;;;9.23;;
7965;SDS011;4028;43.272;26.932;2023-05-10T05:31:42;10.47;;;7.17;;
7965;SDS011;4028;43.272;26.932;2023-05-10T05:34:08;12.53;;;7.57;;
7965;SDS011;4028;43.272;26.932;2023-05-10T05:36:35;9.60;;;7.77;;
7965;SDS011;4028;43.272;26.932;2023-05-10T05:39:03;12.37;;;8.57;;
7965;SDS011;4028;43.272;26.932;2023-05-10T05:41:29;11.90;;;8.43;;
7965;SDS011;4028;43.272;26.932;2023-05-10T05:43:54;8.63;;;7.27;;
7965;SDS011;4028;43.272;26.932;2023-05-10T05:46:20;14.83;;;7.17;;
7965;SDS011;4028;43.272;26.932;2023-05-10T05:48:45;10.33;;;6.87;;
7965;SDS011;4028;43.272;26.932;2023-05-10T05:51:11;10.20;;;6.77;;
7965;SDS011;4028;43.272;26.932;2023-05-10T05:53:36;7.60;;;6.37;;
7965;SDS011;4028;43.272;26.932;2023-05-10T05:56:01;7.67;;;6.20;;
7965;SDS011;4028;43.272;26.932;2023-05-10T05:58:28;11.97;;;7.23;;
7965;SDS011;4028;43.272;26.932;2023-05-10T06:00:54;7.40;;;6.00;;
7965;SDS011;4028;43.272;26.932;2023-05-10T06:03:19;12.17;;;6.30;;
7965;SDS011;4028;43.272;26.932;2023-05-10T06:05:45;8.13;;;6.50;;
7965;SDS011;4028;43.272;26.932;2023-05-10T06:08:10;7.30;;;5.70;;
7965;SDS011;4028;43.272;26.932;2023-05-10T06:10:36;8.13;;;5.97;;
7965;SDS011;4028;43.272;26.932;2023-05-10T06:13:02;7.97;;;5.87;;
7965;SDS011;4028;43.272;26.932;2023-05-10T06:15:27;8.37;;;5.50;;
7965;SDS011;4028;43.272;26.932;2023-05-10T06:17:53;8.83;;;5.37;;
7965;SDS011;4028;43.272;26.932;2023-05-10T06:20:18;9.83;;;5.33;;
7965;SDS011;4028;43.272;26.932;2023-05-10T06:22:44;10.47;;;5.17;;
7965;SDS011;4028;43.272;26.932;2023-05-10T06:25:09;8.07;;;5.63;;
7965;SDS011;4028;43.272;26.932;2023-05-10T06:27:36;7.90;;;4.93;;
7965;SDS011;4028;43.272;26.932;2023-05-10T06:30:01;7.47;;;5.37;;
7965;SDS011;4028;43.272;26.932;2023-05-10T06:32:30;8.73;;;5.07;;
7965;SDS011;4028;43.272;26.932;2023-05-10T06:34:56;6.50;;;4.30;;
7965;SDS011;4028;43.272;26.932;2023-05-10T06:37:21;5.70;;;4.73;;
7965;SDS011;4028;43.272;26.932;2023-05-10T06:39:47;6.37;;;4.93;;
7965;SDS011;4028;43.272;26.932;2023-05-10T06:42:12;5.33;;;4.57;;
7965;SDS011;4028;43.272;26.932;2023-05-10T06:44:38;5.03;;;4.63;;
7965;SDS011;4028;43.272;26.932;2023-05-10T06:47:03;7.97;;;5.00;;
7965;SDS011;4028;43.272;26.932;2023-05-10T06:49:29;7.27;;;4.40;;
7965;SDS011;4028;43.272;26.932;2023-05-10T06:51:58;7.13;;;4.20;;
7965;SDS011;4028;43.272;26.932;2023-05-10T06:54:23;7.13;;;3.75;;
7965;SDS011;4028;43.272;26.932;2023-05-10T06:56:48;5.78;;;3.80;;
7965;SDS011;4028;43.272;26.932;2023-05-10T06:59:14;4.25;;;3.85;;
7965;SDS011;4028;43.272;26.932;2023-05-10T07:01:41;7.32;;;5.88;;
7965;SDS011;4028;43.272;26.932;2023-05-10T07:04:07;4.15;;;3.70;;
7965;SDS011;4028;43.272;26.932;2023-05-10T07:06:33;4.50;;;3.72;;
7965;SDS011;4028;43.272;26.932;2023-05-10T07:08:59;4.00;;;3.60;;
7965;SDS011;4028;43.272;26.932;2023-05-10T07:11:25;3.92;;;3.47;;
7965;SDS011;4028;43.272;26.932;2023-05-10T07:13:51;4.32;;;3.92;;
7965;SDS011;4028;43.272;26.932;2023-05-10T07:16:17;5.50;;;3.85;;
7965;SDS011;4028;43.272;26.932;2023-05-10T07:18:42;5.13;;;3.78;;
7965;SDS011;4028;43.272;26.932;2023-05-10T07:21:08;4.85;;;3.95;;
7965;SDS011;4028;43.272;26.932;2023-05-10T07:23:33;4.55;;;3.85;;
7965;SDS011;4028;43.272;26.932;2023-05-10T07:25:59;4.30;;;3.60;;
7965;SDS011;4028;43.272;26.932;2023-05-10T07:28:25;4.45;;;3.53;;
7965;SDS011;4028;43.272;26.932;2023-05-10T07:30:50;4.70;;;4.13;;
7965;SDS011;4028;43.272;26.932;2023-05-10T07:33:16;7.38;;;3.63;;
7965;SDS011;4028;43.272;26.932;2023-05-10T07:35:42;5.70;;;3.20;;
7965;SDS011;4028;43.272;26.932;2023-05-10T07:38:07;4.80;;;3.25;;
7965;SDS011;4028;43.272;26.932;2023-05-10T07:40:33;4.28;;;3.58;;
7965;SDS011;4028;43.272;26.932;2023-05-10T07:42:59;4.47;;;3.60;;
7965;SDS011;4028;43.272;26.932;2023-05-10T07:45:26;5.70;;;3.85;;
7965;SDS011;4028;43.272;26.932;2023-05-10T07:47:52;3.95;;;3.47;;
7965;SDS011;4028;43.272;26.932;2023-05-10T07:50:18;5.97;;;3.60;;
7965;SDS011;4028;43.272;26.932;2023-05-10T07:52:43;5.22;;;4.22;;
7965;SDS011;4028;43.272;26.932;2023-05-10T07:55:09;4.85;;;3.70;;
7965;SDS011;4028;43.272;26.932;2023-05-10T07:57:34;4.33;;;3.60;;
7965;SDS011;4028;43.272;26.932;2023-05-10T08:00:00;7.10;;;4.23;;
7965;SDS011;4028;43.272;26.932;2023-05-10T08:02:26;4.40;;;4.00;;
7965;SDS011;4028;43.272;26.932;2023-05-10T08:04:51;6.30;;;3.97;;
7965;SDS011;4028;43.272;26.932;2023-05-10T08:07:17;4.38;;;3.90;;
7965;SDS011;4028;43.272;26.932;2023-05-10T08:09:43;3.20;;;2.90;;
7965;SDS011;4028;43.272;26.932;2023-05-10T08:12:08;3.35;;;3.15;;
7965;SDS011;4028;43.272;26.932;2023-05-10T08:14:34;4.25;;;3.30;;
7965;SDS011;4028;43.272;26.932;2023-05-10T08:17:01;3.95;;;3.45;;
7965;SDS011;4028;43.272;26.932;2023-05-10T08:19:28;5.25;;;3.70;;
7965;SDS011;4028;43.272;26.932;2023-05-10T08:21:53;4.45;;;3.30;;
7965;SDS011;4028;43.272;26.932;2023-05-10T08:24:20;6.63;;;3.70;;
7965;SDS011;4028;43.272;26.932;2023-05-10T08:26:47;3.38;;;3.08;;
7965;SDS011;4028;43.272;26.932;2023-05-10T08:29:13;3.58;;;3.10;;
7965;SDS011;4028;43.272;26.932;2023-05-10T08:31:39;3.88;;;3.30;;
7965;SDS011;4028;43.272;26.932;2023-05-10T08:34:04;6.55;;;3.63;;
7965;SDS011;4028;43.272;26.932;2023-05-10T08:36:30;6.90;;;3.35;;
7965;SDS011;4028;43.272;26.932;2023-05-10T08:38:57;3.55;;;3.17;;
7965;SDS011;4028;43.272;26.932;2023-05-10T08:41:23;4.22;;;3.60;;
7965;SDS011;4028;43.272;26.932;2023-05-10T08:43:51;3.88;;;3.47;;
7965;SDS011;4028;43.272;26.932;2023-05-10T08:46:20;4.57;;;3.60;;
7965;SDS011;4028;43.272;26.932;2023-05-10T08:48:47;4.85;;;3.97;;
7965;SDS011;4028;43.272;26.932;2023-05-10T08:51:24;5.55;;;3.88;;
7965;SDS011;4028;43.272;26.932;2023-05-10T08:53:53;6.47;;;4.00;;
7965;SDS011;4028;43.272;26.932;2023-05-10T08:56:19;6.32;;;3.88;;
7965;SDS011;4028;43.272;26.932;2023-05-10T08:58:45;5.60;;;4.22;;
7965;SDS011;4028;43.272;26.932;2023-05-10T09:01:11;4.32;;;3.65;;
7965;SDS011;4028;43.272;26.932;2023-05-10T09:03:38;4.45;;;4.05;;
7965;SDS011;4028;43.272;26.932;2023-05-10T09:06:05;5.95;;;4.40;;
7965;SDS011;4028;43.272;26.932;2023-05-10T09:08:31;6.22;;;4.18;;
7965;SDS011;4028;43.272;26.932;2023-05-10T09:10:58;5.55;;;3.97;;
7965;SDS011;4028;43.272;26.932;2023-05-10T09:13:26;4.90;;;4.47;;
7965;SDS011;4028;43.272;26.932;2023-05-10T09:15:52;9.77;;;4.50;;
7965;SDS011;4028;43.272;26.932;2023-05-10T09:18:18;4.30;;;3.90;;
7965;SDS011;4028;43.272;26.932;2023-05-10T09:20:43;4.67;;;3.90;;
7965;SDS011;4028;43.272;26.932;2023-05-10T09:23:09;5.67;;;4.13;;
7965;SDS011;4028;43.272;26.932;2023-05-10T09:25:35;5.20;;;3.77;;
7965;SDS011;4028;43.272;26.932;2023-05-10T09:28:02;4.40;;;4.10;;
7965;SDS011;4028;43.272;26.932;2023-05-10T09:30:31;4.75;;;4.35;;
7965;SDS011;4028;43.272;26.932;2023-05-10T09:32:57;8.88;;;4.03;;
7965;SDS011;4028;43.272;26.932;2023-05-10T09:35:24;7.80;;;4.10;;
7965;SDS011;4028;43.272;26.932;2023-05-10T09:37:53;4.75;;;4.35;;
7965;SDS011;4028;43.272;26.932;2023-05-10T09:40:20;5.25;;;4.85;;
7965;SDS011;4028;43.272;26.932;2023-05-10T09:43:06;9.90;;;5.60;;
7965;SDS011;4028;43.272;26.932;2023-05-10T09:45:33;6.75;;;5.80;;
7965;SDS011;4028;43.272;26.932;2023-05-10T09:48:00;7.00;;;6.22;;
7965;SDS011;4028;43.272;26.932;2023-05-10T09:50:27;6.38;;;5.45;;
7965;SDS011;4028;43.272;26.932;2023-05-10T09:53:00;7.25;;;5.00;;
7965;SDS011;4028;43.272;26.932;2023-05-10T09:55:41;7.28;;;5.20;;
7965;SDS011;4028;43.272;26.932;2023-05-10T09:58:10;5.82;;;5.32;;
7965;SDS011;4028;43.272;26.932;2023-05-10T10:00:36;9.20;;;5.28;;
7965;SDS011;4028;43.272;26.932;2023-05-10T10:03:03;10.25;;;4.70;;
7965;SDS011;4028;43.272;26.932;2023-05-10T10:05:29;5.78;;;4.85;;
7965;SDS011;4028;43.272;26.932;2023-05-10T10:08:00;7.85;;;5.72;;
7965;SDS011;4028;43.272;26.932;2023-05-10T10:10:28;6.88;;;5.38;;
7965;SDS011;4028;43.272;26.932;2023-05-10T10:12:54;7.00;;;4.95;;
7965;SDS011;4028;43.272;26.932;2023-05-10T10:15:21;9.75;;;5.82;;
7965;SDS011;4028;43.272;26.932;2023-05-10T10:17:48;4.57;;;4.18;;
7965;SDS011;4028;43.272;26.932;2023-05-10T10:20:14;6.13;;;5.38;;
7965;SDS011;4028;43.272;26.932;2023-05-10T10:22:41;6.05;;;4.97;;
7965;SDS011;4028;43.272;26.932;2023-05-10T10:25:08;6.07;;;4.85;;
7965;SDS011;4028;43.272;26.932;2023-05-10T10:30:39;5.57;;;4.28;;
7965;SDS011;4028;43.272;26.932;2023-05-10T10:35:54;7.18;;;5.15;;
7965;SDS011;4028;43.272;26.932;2023-05-10T10:38:23;6.32;;;4.32;;
7965;SDS011;4028;43.272;26.932;2023-05-10T10:40:55;5.80;;;4.80;;
7965;SDS011;4028;43.272;26.932;2023-05-10T10:43:27;9.18;;;5.07;;
7965;SDS011;4028;43.272;26.932;2023-05-10T10:48:39;4.25;;;3.85;;
7965;SDS011;4028;43.272;26.932;2023-05-10T10:51:30;5.82;;;3.85;;
7965;SDS011;4028;43.272;26.932;2023-05-10T10:53:56;7.25;;;4.03;;
7965;SDS011;4028;43.272;26.932;2023-05-10T10:56:34;4.68;;;4.15;;
7965;SDS011;4028;43.272;26.932;2023-05-10T10:58:59;4.70;;;3.75;;
7965;SDS011;4028;43.272;26.932;2023-05-10T11:01:25;5.10;;;4.18;;
7965;SDS011;4028;43.272;26.932;2023-05-10T11:06:34;5.03;;;4.00;;
7965;SDS011;4028;43.272;26.932;2023-05-10T11:09:06;5.10;;;4.68;;
7965;SDS011;4028;43.272;26.932;2023-05-10T11:11:34;6.47;;;3.75;;
7965;SDS011;4028;43.272;26.932;2023-05-10T11:14:04;4.20;;;3.80;;
7965;SDS011;4028;43.272;26.932;2023-05-10T11:16:40;5.50;;;3.97;;
7965;SDS011;4028;43.272;26.932;2023-05-10T11:19:08;3.65;;;3.33;;
7965;SDS011;4028;43.272;26.932;2023-05-10T11:21:44;3.97;;;3.30;;
7965;SDS011;4028;43.272;26.932;2023-05-10T11:24:21;6.00;;;2.78;;
7965;SDS011;4028;43.272;26.932;2023-05-10T11:26:51;4.13;;;3.38;;
7965;SDS011;4028;43.272;26.932;2023-05-10T11:29:17;4.00;;;3.33;;
7965;SDS011;4028;43.272;26.932;2023-05-10T11:31:46;3.90;;;3.20;;
7965;SDS011;4028;43.272;26.932;2023-05-10T11:34:33;3.53;;;3.22;;
7965;SDS011;4028;43.272;26.932;2023-05-10T11:36:59;4.38;;;3.85;;
7965;SDS011;4028;43.272;26.932;2023-05-10T11:39:25;3.33;;;3.03;;
7965;SDS011;4028;43.272;26.932;2023-05-10T11:41:52;3.67;;;3.38;;
7965;SDS011;4028;43.272;26.932;2023-05-10T11:44:18;3.28;;;2.97;;
7965;SDS011;4028;43.272;26.932;2023-05-10T11:46:44;8.27;;;3.20;;
7965;SDS011;4028;43.272;26.932;2023-05-10T11:49:09;5.40;;;3.30;;
7965;SDS011;4028;43.272;26.932;2023-05-10T11:51:35;5.80;;;2.97;;
7965;SDS011;4028;43.272;26.932;2023-05-10T11:54:05;5.25;;;3.00;;
7965;SDS011;4028;43.272;26.932;2023-05-10T11:56:32;3.63;;;2.92;;
7965;SDS011;4028;43.272;26.932;2023-05-10T11:58:58;3.28;;;2.95;;
7965;SDS011;4028;43.272;26.932;2023-05-10T12:01:26;3.70;;;2.72;;
7965;SDS011;4028;43.272;26.932;2023-05-10T12:03:52;2.92;;;2.42;;
7965;SDS011;4028;43.272;26.932;2023-05-10T12:06:19;5.82;;;3.10;;
7965;SDS011;4028;43.272;26.932;2023-05-10T12:08:46;3.00;;;2.60;;
7965;SDS011;4028;43.272;26.932;2023-05-10T12:11:12;4.07;;;2.53;;
7965;SDS011;4028;43.272;26.932;2023-05-10T12:13:41;5.50;;;2.65;;
7965;SDS011;4028;43.272;26.932;2023-05-10T12:16:18;2.60;;;2.35;;
7965;SDS011;4028;43.272;26.932;2023-05-10T12:18:48;3.38;;;2.95;;
7965;SDS011;4028;43.272;26.932;2023-05-10T12:21:14;5.75;;;2.92;;
7965;SDS011;4028;43.272;26.932;2023-05-10T12:23:40;5.43;;;3.25;;
7965;SDS011;4028;43.272;26.932;2023-05-10T12:26:07;3.15;;;2.63;;
7965;SDS011;4028;43.272;26.932;2023-05-10T12:28:34;3.65;;;2.80;;
7965;SDS011;4028;43.272;26.932;2023-05-10T12:31:00;5.80;;;2.77;;
7965;SDS011;4028;43.272;26.932;2023-05-10T12:33:26;6.30;;;3.58;;
7965;SDS011;4028;43.272;26.932;2023-05-10T12:35:53;10.23;;;3.10;;
7965;SDS011;4028;43.272;26.932;2023-05-10T12:38:32;5.00;;;2.63;;
7965;SDS011;4028;43.272;26.932;2023-05-10T12:41:01;3.30;;;3.00;;
7965;SDS011;4028;43.272;26.932;2023-05-10T12:43:28;6.60;;;3.00;;
7965;SDS011;4028;43.272;26.932;2023-05-10T12:45:53;2.83;;;2.43;;
7965;SDS011;4028;43.272;26.932;2023-05-10T12:48:19;3.30;;;2.63;;
7965;SDS011;4028;43.272;26.932;2023-05-10T12:50:45;6.67;;;2.70;;
7965;SDS011;4028;43.272;26.932;2023-05-10T12:53:11;5.03;;;2.80;;
7965;SDS011;4028;43.272;26.932;2023-05-10T12:55:38;3.37;;;2.80;;
7965;SDS011;4028;43.272;26.932;2023-05-10T12:58:04;4.23;;;2.93;;
7965;SDS011;4028;43.272;26.932;2023-05-10T13:00:30;4.27;;;2.77;;
7965;SDS011;4028;43.272;26.932;2023-05-10T13:02:55;3.38;;;2.83;;
7965;SDS011;4028;43.272;26.932;2023-05-10T13:05:20;5.13;;;3.27;;
7965;SDS011;4028;43.272;26.932;2023-05-10T13:07:46;9.57;;;3.30;;
7965;SDS011;4028;43.272;26.932;2023-05-10T13:10:11;4.43;;;2.90;;
7965;SDS011;4028;43.272;26.932;2023-05-10T13:12:37;2.97;;;2.70;;
7965;SDS011;4028;43.272;26.932;2023-05-10T13:15:02;3.03;;;2.75;;
7965;SDS011;4028;43.272;26.932;2023-05-10T13:17:28;3.70;;;2.92;;
7965;SDS011;4028;43.272;26.932;2023-05-10T13:19:54;6.70;;;2.87;;
7965;SDS011;4028;43.272;26.932;2023-05-10T13:22:20;3.70;;;2.67;;
7965;SDS011;4028;43.272;26.932;2023-05-10T13:24:45;7.05;;;3.38;;
7965;SDS011;4028;43.272;26.932;2023-05-10T13:27:11;6.03;;;2.97;;
7965;SDS011;4028;43.272;26.932;2023-05-10T13:29:36;4.72;;;2.80;;
7965;SDS011;4028;43.272;26.932;2023-05-10T13:32:01;6.63;;;3.30;;
7965;SDS011;4028;43.272;26.932;2023-05-10T13:34:27;3.73;;;2.70;;
7965;SDS011;4028;43.272;26.932;2023-05-10T13:36:53;2.93;;;2.53;;
7965;SDS011;4028;43.272;26.932;2023-05-10T13:39:19;5.40;;;2.57;;
7965;SDS011;4028;43.272;26.932;2023-05-10T13:41:45;3.53;;;2.97;;
7965;SDS011;4028;43.272;26.932;2023-05-10T13:44:12;3.73;;;3.00;;
7965;SDS011;4028;43.272;26.932;2023-05-10T13:46:39;4.93;;;3.00;;
7965;SDS011;4028;43.272;26.932;2023-05-10T13:49:04;4.67;;;3.10;;
7965;SDS011;4028;43.272;26.932;2023-05-10T13:51:30;4.10;;;3.20;;
7965;SDS011;4028;43.272;26.932;2023-05-10T13:53:56;4.47;;;3.33;;
7965;SDS011;4028;43.272;26.932;2023-05-10T13:56:37;4.40;;;3.27;;
7965;SDS011;4028;43.272;26.932;2023-05-10T13:59:03;3.33;;;3.00;;
7965;SDS011;4028;43.272;26.932;2023-05-10T14:01:28;5.50;;;3.00;;
7965;SDS011;4028;43.272;26.932;2023-05-10T14:03:54;5.67;;;2.80;;
7965;SDS011;4028;43.272;26.932;2023-05-10T14:06:19;3.47;;;3.00;;
7965;SDS011;4028;43.272;26.932;2023-05-10T14:08:45;4.03;;;3.30;;
7965;SDS011;4028;43.272;26.932;2023-05-10T14:11:11;5.73;;;2.83;;
7965;SDS011;4028;43.272;26.932;2023-05-10T14:13:36;2.90;;;2.60;;
7965;SDS011;4028;43.272;26.932;2023-05-10T14:16:02;4.13;;;3.20;;
7965;SDS011;4028;43.272;26.932;2023-05-10T14:18:28;11.13;;;3.10;;
7965;SDS011;4028;43.272;26.932;2023-05-10T14:20:53;4.37;;;2.70;;
7965;SDS011;4028;43.272;26.932;2023-05-10T14:23:19;3.33;;;2.70;;
7965;SDS011;4028;43.272;26.932;2023-05-10T14:25:49;5.03;;;3.00;;
7965;SDS011;4028;43.272;26.932;2023-05-10T14:28:15;4.30;;;2.97;;
7965;SDS011;4028;43.272;26.932;2023-05-10T14:30:40;3.93;;;3.17;;
7965;SDS011;4028;43.272;26.932;2023-05-10T14:33:06;4.77;;;2.90;;
7965;SDS011;4028;43.272;26.932;2023-05-10T14:35:32;3.33;;;3.00;;
7965;SDS011;4028;43.272;26.932;2023-05-10T14:37:58;4.40;;;2.77;;
7965;SDS011;4028;43.272;26.932;2023-05-10T14:40:23;2.80;;;2.60;;
7965;SDS011;4028;43.272;26.932;2023-05-10T14:42:49;5.83;;;3.07;;
7965;SDS011;4028;43.272;26.932;2023-05-10T14:45:15;4.27;;;3.00;;
7965;SDS011;4028;43.272;26.932;2023-05-10T14:47:41;3.23;;;2.90;;
7965;SDS011;4028;43.272;26.932;2023-05-10T14:50:06;5.43;;;3.00;;
7965;SDS011;4028;43.272;26.932;2023-05-10T14:55:54;5.77;;;2.70;;
7965;SDS011;4028;43.272;26.932;2023-05-10T14:58:20;4.50;;;3.00;;
7965;SDS011;4028;43.272;26.932;2023-05-10T15:00:45;3.93;;;3.37;;
7965;SDS011;4028;43.272;26.932;2023-05-10T15:03:11;4.67;;;3.57;;
7965;SDS011;4028;43.272;26.932;2023-05-10T15:05:37;3.97;;;3.10;;
7965;SDS011;4028;43.272;26.932;2023-05-10T15:08:02;3.63;;;3.17;;
7965;SDS011;4028;43.272;26.932;2023-05-10T15:10:29;6.60;;;3.03;;
7965;SDS011;4028;43.272;26.932;2023-05-10T15:12:55;5.67;;;3.23;;
7965;SDS011;4028;43.272;26.932;2023-05-10T15:15:20;3.63;;;2.63;;
7965;SDS011;4028;43.272;26.932;2023-05-10T15:17:47;6.63;;;3.20;;
7965;SDS011;4028;43.272;26.932;2023-05-10T15:20:12;4.23;;;2.90;;
7965;SDS011;4028;43.272;26.932;2023-05-10T15:22:38;3.97;;;2.90;;
7965;SDS011;4028;43.272;26.932;2023-05-10T15:25:03;5.60;;;3.93;;
7965;SDS011;4028;43.272;26.932;2023-05-10T15:27:29;5.63;;;3.40;;
7965;SDS011;4028;43.272;26.932;2023-05-10T15:29:55;3.37;;;3.07;;
7965;SDS011;4028;43.272;26.932;2023-05-10T15:32:20;4.87;;;3.30;;